sensor_id;sensor_type;location;lat;lon;timestamp;P1;durP1;ratioP1;P2;durP2;ratioP2
34695;SDS011;20918;51.138;17.370;2022-10-16T00:00:41;10.45;;;8.03;;
34695;SDS011;20918;51.138;17.370;2022-10-16T00:03:43;12.03;;;7.65;;
34695;SDS011;20918;51.138;17.370;2022-10-16T00:06:45;11.00;;;7.72;;
34695;SDS011;20918;51.138;17.370;2022-10-16T00:09:46;9.63;;;7.45;;
34695;SDS011;20918;51.138;17.370;2022-10-16T00:12:47;8.40;;;6.85;;
34695;SDS011;20918;51.138;17.370;2022-10-16T00:15:49;9.35;;;7.37;;
34695;SDS011;20918;51.138;17.370;2022-10-16T00:18:50;11.50;;;7.37;;
34695;SDS011;20918;51.138;17.370;2022-10-16T00:21:51;10.25;;;7.97;;
34695;SDS011;20918;51.138;17.370;2022-10-16T00:24:52;9.68;;;7.70;;
34695;SDS011;20918;51.138;17.370;2022-10-16T00:27:53;11.12;;;7.50;;
34695;SDS011;20918;51.138;17.370;2022-10-16T00:30:55;8.90;;;7.40;;
34695;SDS011;20918;51.138;17.370;2022-10-16T00:33:56;11.88;;;7.83;;
34695;SDS011;20918;51.138;17.370;2022-10-16T00:36:57;12.70;;;7.95;;
34695;SDS011;20918;51.138;17.370;2022-10-16T00:39:58;16.52;;;7.75;;
34695;SDS011;20918;51.138;17.370;2022-10-16T00:42:59;9.38;;;7.35;;
34695;SDS011;20918;51.138;17.370;2022-10-16T00:46:01;11.45;;;6.67;;
34695;SDS011;20918;51.138;17.370;2022-10-16T00:49:10;9.48;;;6.78;;
34695;SDS011;20918;51.138;17.370;2022-10-16T00:52:14;8.23;;;6.85;;
34695;SDS011;20918;51.138;17.370;2022-10-16T00:55:16;10.10;;;6.83;;
34695;SDS011;20918;51.138;17.370;2022-10-16T00:58:17;11.48;;;7.17;;
34695;SDS011;20918;51.138;17.370;2022-10-16T01:01:18;12.33;;;6.28;;
34695;SDS011;20918;51.138;17.370;2022-10-16T01:04:19;9.15;;;6.25;;
34695;SDS011;20918;51.138;17.370;2022-10-16T01:11:08;6.42;;;5.47;;
34695;SDS011;20918;51.138;17.370;2022-10-16T01:14:15;7.47;;;5.78;;
34695;SDS011;20918;51.138;17.370;2022-10-16T01:17:22;7.30;;;5.47;;
34695;SDS011;20918;51.138;17.370;2022-10-16T01:20:54;6.10;;;5.50;;
34695;SDS011;20918;51.138;17.370;2022-10-16T01:27:26;11.95;;;7.28;;
34695;SDS011;20918;51.138;17.370;2022-10-16T01:30:30;7.22;;;6.17;;
34695;SDS011;20918;51.138;17.370;2022-10-16T01:33:35;11.83;;;6.87;;
34695;SDS011;20918;51.138;17.370;2022-10-16T01:36:51;8.10;;;6.30;;
34695;SDS011;20918;51.138;17.370;2022-10-16T01:39:52;7.22;;;5.58;;
34695;SDS011;20918;51.138;17.370;2022-10-16T01:43:17;7.80;;;5.65;;
34695;SDS011;20918;51.138;17.370;2022-10-16T01:46:25;20.88;;;11.97;;
34695;SDS011;20918;51.138;17.370;2022-10-16T01:49:29;9.48;;;6.75;;
34695;SDS011;20918;51.138;17.370;2022-10-16T01:52:34;5.97;;;5.37;;
34695;SDS011;20918;51.138;17.370;2022-10-16T01:55:39;7.42;;;5.33;;
34695;SDS011;20918;51.138;17.370;2022-10-16T01:58:48;15.00;;;5.87;;
34695;SDS011;20918;51.138;17.370;2022-10-16T02:01:54;7.65;;;5.62;;
34695;SDS011;20918;51.138;17.370;2022-10-16T02:05:04;10.20;;;5.90;;
34695;SDS011;20918;51.138;17.370;2022-10-16T02:08:27;6.37;;;5.58;;
34695;SDS011;20918;51.138;17.370;2022-10-16T02:11:29;7.97;;;4.97;;
34695;SDS011;20918;51.138;17.370;2022-10-16T02:14:30;10.98;;;5.58;;
34695;SDS011;20918;51.138;17.370;2022-10-16T02:17:32;7.85;;;5.42;;
34695;SDS011;20918;51.138;17.370;2022-10-16T02:20:43;8.38;;;5.67;;
34695;SDS011;20918;51.138;17.370;2022-10-16T02:27:11;5.80;;;5.20;;
34695;SDS011;20918;51.138;17.370;2022-10-16T02:30:39;6.72;;;5.37;;
34695;SDS011;20918;51.138;17.370;2022-10-16T02:33:48;5.87;;;5.10;;
34695;SDS011;20918;51.138;17.370;2022-10-16T02:36:51;6.15;;;5.55;;
34695;SDS011;20918;51.138;17.370;2022-10-16T02:39:54;6.22;;;5.62;;
34695;SDS011;20918;51.138;17.370;2022-10-16T02:42:57;9.43;;;5.92;;
34695;SDS011;20918;51.138;17.370;2022-10-16T02:45:59;8.30;;;5.80;;
34695;SDS011;20918;51.138;17.370;2022-10-16T02:49:00;7.47;;;5.67;;
34695;SDS011;20918;51.138;17.370;2022-10-16T02:52:01;8.58;;;4.75;;
34695;SDS011;20918;51.138;17.370;2022-10-16T02:55:03;6.85;;;5.67;;
34695;SDS011;20918;51.138;17.370;2022-10-16T02:58:05;8.00;;;5.90;;
34695;SDS011;20918;51.138;17.370;2022-10-16T03:01:06;7.50;;;5.58;;
34695;SDS011;20918;51.138;17.370;2022-10-16T03:04:08;6.97;;;5.55;;
34695;SDS011;20918;51.138;17.370;2022-10-16T03:07:10;7.05;;;5.50;;
34695;SDS011;20918;51.138;17.370;2022-10-16T03:10:11;8.73;;;6.15;;
34695;SDS011;20918;51.138;17.370;2022-10-16T03:13:13;8.50;;;6.72;;
34695;SDS011;20918;51.138;17.370;2022-10-16T03:16:13;7.40;;;6.00;;
34695;SDS011;20918;51.138;17.370;2022-10-16T03:19:16;10.30;;;6.35;;
34695;SDS011;20918;51.138;17.370;2022-10-16T03:22:18;5.83;;;5.22;;
34695;SDS011;20918;51.138;17.370;2022-10-16T03:25:19;10.68;;;6.10;;
34695;SDS011;20918;51.138;17.370;2022-10-16T03:28:20;8.85;;;6.87;;
34695;SDS011;20918;51.138;17.370;2022-10-16T03:31:21;13.13;;;7.92;;
34695;SDS011;20918;51.138;17.370;2022-10-16T03:34:22;9.55;;;7.42;;
34695;SDS011;20918;51.138;17.370;2022-10-16T03:37:24;10.58;;;7.45;;
34695;SDS011;20918;51.138;17.370;2022-10-16T03:40:25;16.07;;;10.95;;
34695;SDS011;20918;51.138;17.370;2022-10-16T03:43:27;11.10;;;7.75;;
34695;SDS011;20918;51.138;17.370;2022-10-16T03:46:28;11.00;;;8.43;;
34695;SDS011;20918;51.138;17.370;2022-10-16T03:49:29;9.23;;;7.60;;
34695;SDS011;20918;51.138;17.370;2022-10-16T03:52:30;7.92;;;7.00;;
34695;SDS011;20918;51.138;17.370;2022-10-16T03:55:32;11.55;;;8.05;;
34695;SDS011;20918;51.138;17.370;2022-10-16T03:58:33;9.95;;;7.83;;
34695;SDS011;20918;51.138;17.370;2022-10-16T04:01:34;11.60;;;7.95;;
34695;SDS011;20918;51.138;17.370;2022-10-16T04:04:35;15.15;;;8.63;;
34695;SDS011;20918;51.138;17.370;2022-10-16T04:07:36;9.80;;;8.28;;
34695;SDS011;20918;51.138;17.370;2022-10-16T04:10:38;12.95;;;9.85;;
34695;SDS011;20918;51.138;17.370;2022-10-16T04:13:39;13.08;;;9.35;;
34695;SDS011;20918;51.138;17.370;2022-10-16T04:16:40;10.32;;;9.15;;
34695;SDS011;20918;51.138;17.370;2022-10-16T04:19:41;12.68;;;9.68;;
34695;SDS011;20918;51.138;17.370;2022-10-16T04:22:42;10.03;;;8.88;;
34695;SDS011;20918;51.138;17.370;2022-10-16T04:25:43;11.28;;;9.05;;
34695;SDS011;20918;51.138;17.370;2022-10-16T04:28:44;12.15;;;9.65;;
34695;SDS011;20918;51.138;17.370;2022-10-16T04:31:46;13.68;;;10.15;;
34695;SDS011;20918;51.138;17.370;2022-10-16T04:34:47;11.55;;;9.45;;
34695;SDS011;20918;51.138;17.370;2022-10-16T04:37:48;15.28;;;11.57;;
34695;SDS011;20918;51.138;17.370;2022-10-16T04:40:51;14.55;;;11.22;;
34695;SDS011;20918;51.138;17.370;2022-10-16T04:43:53;14.58;;;11.08;;
34695;SDS011;20918;51.138;17.370;2022-10-16T04:46:54;15.32;;;11.80;;
34695;SDS011;20918;51.138;17.370;2022-10-16T04:49:55;13.18;;;11.00;;
34695;SDS011;20918;51.138;17.370;2022-10-16T04:52:56;17.05;;;11.88;;
34695;SDS011;20918;51.138;17.370;2022-10-16T04:55:57;14.58;;;12.03;;
34695;SDS011;20918;51.138;17.370;2022-10-16T04:59:03;17.25;;;12.03;;
34695;SDS011;20918;51.138;17.370;2022-10-16T05:02:06;24.70;;;13.88;;
34695;SDS011;20918;51.138;17.370;2022-10-16T05:05:07;20.95;;;13.55;;
34695;SDS011;20918;51.138;17.370;2022-10-16T05:08:09;20.40;;;14.47;;
34695;SDS011;20918;51.138;17.370;2022-10-16T05:11:10;17.55;;;12.73;;
34695;SDS011;20918;51.138;17.370;2022-10-16T05:14:11;16.37;;;13.22;;
34695;SDS011;20918;51.138;17.370;2022-10-16T05:17:12;17.17;;;13.08;;
34695;SDS011;20918;51.138;17.370;2022-10-16T05:20:13;21.30;;;15.23;;
34695;SDS011;20918;51.138;17.370;2022-10-16T05:23:19;19.82;;;14.65;;
34695;SDS011;20918;51.138;17.370;2022-10-16T05:26:19;38.05;;;20.70;;
34695;SDS011;20918;51.138;17.370;2022-10-16T05:29:25;15.68;;;12.65;;
34695;SDS011;20918;51.138;17.370;2022-10-16T05:32:26;19.95;;;13.08;;
34695;SDS011;20918;51.138;17.370;2022-10-16T05:35:35;18.80;;;13.13;;
34695;SDS011;20918;51.138;17.370;2022-10-16T05:38:36;16.80;;;13.50;;
34695;SDS011;20918;51.138;17.370;2022-10-16T05:41:49;17.73;;;13.15;;
34695;SDS011;20918;51.138;17.370;2022-10-16T05:44:59;17.27;;;12.90;;
34695;SDS011;20918;51.138;17.370;2022-10-16T05:48:01;21.60;;;13.72;;
34695;SDS011;20918;51.138;17.370;2022-10-16T05:51:06;17.75;;;13.83;;
34695;SDS011;20918;51.138;17.370;2022-10-16T05:54:18;19.42;;;13.48;;
34695;SDS011;20918;51.138;17.370;2022-10-16T05:57:19;18.90;;;14.33;;
34695;SDS011;20918;51.138;17.370;2022-10-16T06:00:20;17.42;;;14.07;;
34695;SDS011;20918;51.138;17.370;2022-10-16T06:03:21;19.30;;;14.65;;
34695;SDS011;20918;51.138;17.370;2022-10-16T06:06:23;17.73;;;12.73;;
34695;SDS011;20918;51.138;17.370;2022-10-16T06:09:30;20.92;;;14.85;;
34695;SDS011;20918;51.138;17.370;2022-10-16T06:12:33;17.35;;;13.30;;
34695;SDS011;20918;51.138;17.370;2022-10-16T06:15:34;16.87;;;12.60;;
34695;SDS011;20918;51.138;17.370;2022-10-16T06:18:36;18.45;;;12.43;;
34695;SDS011;20918;51.138;17.370;2022-10-16T06:21:39;13.85;;;11.57;;
34695;SDS011;20918;51.138;17.370;2022-10-16T06:24:40;15.85;;;11.00;;
34695;SDS011;20918;51.138;17.370;2022-10-16T06:27:43;16.23;;;11.88;;
34695;SDS011;20918;51.138;17.370;2022-10-16T06:30:44;13.78;;;11.33;;
34695;SDS011;20918;51.138;17.370;2022-10-16T06:33:54;11.90;;;10.35;;
34695;SDS011;20918;51.138;17.370;2022-10-16T07:08:52;8.93;;;8.03;;
34695;SDS011;20918;51.138;17.370;2022-10-16T07:11:53;9.90;;;8.63;;
34695;SDS011;20918;51.138;17.370;2022-10-16T07:14:55;8.35;;;7.37;;
34695;SDS011;20918;51.138;17.370;2022-10-16T07:17:56;10.23;;;7.97;;
34695;SDS011;20918;51.138;17.370;2022-10-16T07:21:07;13.00;;;8.23;;
34695;SDS011;20918;51.138;17.370;2022-10-16T07:24:15;10.90;;;8.18;;
34695;SDS011;20918;51.138;17.370;2022-10-16T07:27:17;12.43;;;7.87;;
34695;SDS011;20918;51.138;17.370;2022-10-16T07:30:18;8.70;;;7.37;;
34695;SDS011;20918;51.138;17.370;2022-10-16T07:33:20;11.63;;;8.73;;
34695;SDS011;20918;51.138;17.370;2022-10-16T07:36:25;9.13;;;7.50;;
34695;SDS011;20918;51.138;17.370;2022-10-16T07:39:28;8.33;;;7.20;;
34695;SDS011;20918;51.138;17.370;2022-10-16T07:42:31;10.35;;;8.83;;
34695;SDS011;20918;51.138;17.370;2022-10-16T07:45:36;10.58;;;7.67;;
34695;SDS011;20918;51.138;17.370;2022-10-16T07:48:51;10.95;;;6.83;;
34695;SDS011;20918;51.138;17.370;2022-10-16T07:52:08;7.45;;;6.72;;
34695;SDS011;20918;51.138;17.370;2022-10-16T07:55:26;8.23;;;6.83;;
34695;SDS011;20918;51.138;17.370;2022-10-16T07:58:37;10.05;;;7.12;;
34695;SDS011;20918;51.138;17.370;2022-10-16T08:01:50;9.63;;;7.55;;
34695;SDS011;20918;51.138;17.370;2022-10-16T08:04:51;11.93;;;7.75;;
34695;SDS011;20918;51.138;17.370;2022-10-16T08:07:54;13.28;;;8.73;;
34695;SDS011;20918;51.138;17.370;2022-10-16T08:10:56;9.10;;;7.20;;
34695;SDS011;20918;51.138;17.370;2022-10-16T08:13:57;9.30;;;6.58;;
34695;SDS011;20918;51.138;17.370;2022-10-16T08:16:59;7.78;;;6.58;;
34695;SDS011;20918;51.138;17.370;2022-10-16T08:20:02;11.70;;;6.72;;
34695;SDS011;20918;51.138;17.370;2022-10-16T08:23:07;6.85;;;6.05;;
34695;SDS011;20918;51.138;17.370;2022-10-16T08:26:13;8.28;;;6.12;;
34695;SDS011;20918;51.138;17.370;2022-10-16T08:33:35;6.15;;;5.42;;
34695;SDS011;20918;51.138;17.370;2022-10-16T08:36:37;7.72;;;4.85;;
34695;SDS011;20918;51.138;17.370;2022-10-16T08:39:38;6.37;;;4.95;;
34695;SDS011;20918;51.138;17.370;2022-10-16T08:50:02;6.60;;;4.87;;
34695;SDS011;20918;51.138;17.370;2022-10-16T08:53:15;5.70;;;4.62;;
34695;SDS011;20918;51.138;17.370;2022-10-16T08:56:35;5.75;;;5.15;;
34695;SDS011;20918;51.138;17.370;2022-10-16T08:59:41;6.05;;;5.12;;
34695;SDS011;20918;51.138;17.370;2022-10-16T09:24:17;6.85;;;4.85;;
34695;SDS011;20918;51.138;17.370;2022-10-16T09:27:26;5.72;;;5.05;;
34695;SDS011;20918;51.138;17.370;2022-10-16T09:30:35;5.83;;;5.17;;
34695;SDS011;20918;51.138;17.370;2022-10-16T09:33:39;5.87;;;5.28;;
34695;SDS011;20918;51.138;17.370;2022-10-16T09:36:43;6.08;;;5.00;;
34695;SDS011;20918;51.138;17.370;2022-10-16T09:39:58;6.40;;;4.92;;
34695;SDS011;20918;51.138;17.370;2022-10-16T09:43:02;6.65;;;5.25;;
34695;SDS011;20918;51.138;17.370;2022-10-16T09:49:39;5.90;;;4.87;;
34695;SDS011;20918;51.138;17.370;2022-10-16T09:53:12;5.90;;;5.23;;
34695;SDS011;20918;51.138;17.370;2022-10-16T09:56:27;7.72;;;6.05;;
34695;SDS011;20918;51.138;17.370;2022-10-16T09:59:44;8.28;;;5.67;;
34695;SDS011;20918;51.138;17.370;2022-10-16T10:02:47;11.70;;;5.92;;
34695;SDS011;20918;51.138;17.370;2022-10-16T10:05:49;8.23;;;5.47;;
34695;SDS011;20918;51.138;17.370;2022-10-16T10:12:05;6.78;;;5.25;;
34695;SDS011;20918;51.138;17.370;2022-10-16T10:15:24;7.20;;;5.25;;
34695;SDS011;20918;51.138;17.370;2022-10-16T10:18:28;7.22;;;5.25;;
34695;SDS011;20918;51.138;17.370;2022-10-16T10:21:32;6.55;;;5.50;;
34695;SDS011;20918;51.138;17.370;2022-10-16T10:24:34;11.05;;;5.78;;
34695;SDS011;20918;51.138;17.370;2022-10-16T10:31:13;7.22;;;6.15;;
34695;SDS011;20918;51.138;17.370;2022-10-16T10:38:20;8.65;;;4.92;;
34695;SDS011;20918;51.138;17.370;2022-10-16T10:45:18;5.65;;;4.87;;
34695;SDS011;20918;51.138;17.370;2022-10-16T11:06:04;4.72;;;4.33;;
34695;SDS011;20918;51.138;17.370;2022-10-16T11:12:39;4.00;;;3.60;;
34695;SDS011;20918;51.138;17.370;2022-10-16T11:15:47;5.55;;;3.92;;
34695;SDS011;20918;51.138;17.370;2022-10-16T11:19:03;3.33;;;3.02;;
34695;SDS011;20918;51.138;17.370;2022-10-16T11:22:43;4.72;;;3.12;;
34695;SDS011;20918;51.138;17.370;2022-10-16T11:26:02;5.10;;;4.25;;
34695;SDS011;20918;51.138;17.370;2022-10-16T11:29:10;4.47;;;3.60;;
34695;SDS011;20918;51.138;17.370;2022-10-16T11:32:25;3.45;;;3.05;;
34695;SDS011;20918;51.138;17.370;2022-10-16T11:35:33;7.25;;;3.00;;
34695;SDS011;20918;51.138;17.370;2022-10-16T11:38:59;5.87;;;3.30;;
34695;SDS011;20918;51.138;17.370;2022-10-16T11:42:16;5.90;;;4.03;;
34695;SDS011;20918;51.138;17.370;2022-10-16T11:45:31;3.85;;;3.00;;
34695;SDS011;20918;51.138;17.370;2022-10-16T11:55:24;4.33;;;3.20;;
34695;SDS011;20918;51.138;17.370;2022-10-16T12:01:55;4.22;;;3.83;;
34695;SDS011;20918;51.138;17.370;2022-10-16T12:05:33;3.60;;;3.30;;
34695;SDS011;20918;51.138;17.370;2022-10-16T12:08:36;3.40;;;3.10;;
34695;SDS011;20918;51.138;17.370;2022-10-16T12:11:37;5.00;;;3.10;;
34695;SDS011;20918;51.138;17.370;2022-10-16T12:14:39;4.33;;;3.22;;
34695;SDS011;20918;51.138;17.370;2022-10-16T12:17:40;10.38;;;4.05;;
34695;SDS011;20918;51.138;17.370;2022-10-16T12:20:41;5.45;;;4.50;;
34695;SDS011;20918;51.138;17.370;2022-10-16T12:23:54;6.35;;;5.08;;
34695;SDS011;20918;51.138;17.370;2022-10-16T12:27:01;8.18;;;4.62;;
34695;SDS011;20918;51.138;17.370;2022-10-16T12:30:04;7.35;;;5.40;;
34695;SDS011;20918;51.138;17.370;2022-10-16T12:33:21;6.10;;;5.50;;
34695;SDS011;20918;51.138;17.370;2022-10-16T12:36:33;7.75;;;5.47;;
34695;SDS011;20918;51.138;17.370;2022-10-16T12:39:35;5.45;;;4.95;;
34695;SDS011;20918;51.138;17.370;2022-10-16T12:42:38;6.55;;;5.62;;
34695;SDS011;20918;51.138;17.370;2022-10-16T12:45:40;7.12;;;5.50;;
34695;SDS011;20918;51.138;17.370;2022-10-16T12:48:42;7.15;;;5.42;;
34695;SDS011;20918;51.138;17.370;2022-10-16T12:51:46;7.62;;;5.92;;
34695;SDS011;20918;51.138;17.370;2022-10-16T12:54:47;6.10;;;5.50;;
34695;SDS011;20918;51.138;17.370;2022-10-16T13:08:44;11.40;;;8.15;;
34695;SDS011;20918;51.138;17.370;2022-10-16T13:12:25;9.08;;;7.45;;
34695;SDS011;20918;51.138;17.370;2022-10-16T13:18:41;11.10;;;7.00;;
34695;SDS011;20918;51.138;17.370;2022-10-16T13:28:58;9.05;;;7.78;;
34695;SDS011;20918;51.138;17.370;2022-10-16T13:32:06;14.85;;;6.97;;
34695;SDS011;20918;51.138;17.370;2022-10-16T13:35:19;8.03;;;7.22;;
34695;SDS011;20918;51.138;17.370;2022-10-16T13:38:31;8.43;;;7.53;;
34695;SDS011;20918;51.138;17.370;2022-10-16T13:41:35;8.58;;;7.40;;
34695;SDS011;20918;51.138;17.370;2022-10-16T13:44:39;9.68;;;7.20;;
34695;SDS011;20918;51.138;17.370;2022-10-16T13:47:49;8.05;;;7.22;;
34695;SDS011;20918;51.138;17.370;2022-10-16T13:51:04;10.43;;;7.80;;
34695;SDS011;20918;51.138;17.370;2022-10-16T13:54:15;14.20;;;8.30;;
34695;SDS011;20918;51.138;17.370;2022-10-16T13:57:21;8.55;;;7.75;;
34695;SDS011;20918;51.138;17.370;2022-10-16T14:00:32;8.85;;;7.47;;
34695;SDS011;20918;51.138;17.370;2022-10-16T14:03:33;9.75;;;7.78;;
34695;SDS011;20918;51.138;17.370;2022-10-16T14:06:36;9.50;;;8.03;;
34695;SDS011;20918;51.138;17.370;2022-10-16T14:09:47;10.75;;;8.30;;
34695;SDS011;20918;51.138;17.370;2022-10-16T14:13:03;9.35;;;8.10;;
34695;SDS011;20918;51.138;17.370;2022-10-16T14:16:09;10.72;;;7.97;;
34695;SDS011;20918;51.138;17.370;2022-10-16T14:19:32;8.95;;;7.15;;
34695;SDS011;20918;51.138;17.370;2022-10-16T14:22:38;8.85;;;7.58;;
34695;SDS011;20918;51.138;17.370;2022-10-16T14:25:42;11.78;;;7.55;;
34695;SDS011;20918;51.138;17.370;2022-10-16T14:28:43;9.18;;;7.15;;
34695;SDS011;20918;51.138;17.370;2022-10-16T14:32:02;11.53;;;6.85;;
34695;SDS011;20918;51.138;17.370;2022-10-16T14:35:03;7.55;;;6.65;;
34695;SDS011;20918;51.138;17.370;2022-10-16T14:38:05;7.87;;;6.20;;
34695;SDS011;20918;51.138;17.370;2022-10-16T14:41:09;8.20;;;6.08;;
34695;SDS011;20918;51.138;17.370;2022-10-16T14:44:11;6.70;;;6.00;;
34695;SDS011;20918;51.138;17.370;2022-10-16T14:47:13;9.15;;;6.87;;
34695;SDS011;20918;51.138;17.370;2022-10-16T14:50:20;7.05;;;5.83;;
34695;SDS011;20918;51.138;17.370;2022-10-16T14:53:24;8.35;;;6.08;;
34695;SDS011;20918;51.138;17.370;2022-10-16T14:56:27;9.30;;;6.65;;
34695;SDS011;20918;51.138;17.370;2022-10-16T14:59:37;15.25;;;7.70;;
34695;SDS011;20918;51.138;17.370;2022-10-16T15:02:41;8.00;;;7.17;;
34695;SDS011;20918;51.138;17.370;2022-10-16T15:05:43;8.35;;;6.60;;
34695;SDS011;20918;51.138;17.370;2022-10-16T15:08:45;10.18;;;7.05;;
34695;SDS011;20918;51.138;17.370;2022-10-16T15:11:46;7.87;;;6.25;;
34695;SDS011;20918;51.138;17.370;2022-10-16T15:14:48;7.72;;;6.65;;
34695;SDS011;20918;51.138;17.370;2022-10-16T15:17:49;9.75;;;6.72;;
34695;SDS011;20918;51.138;17.370;2022-10-16T15:20:56;8.70;;;7.17;;
34695;SDS011;20918;51.138;17.370;2022-10-16T15:23:58;10.20;;;7.12;;
34695;SDS011;20918;51.138;17.370;2022-10-16T15:27:01;7.75;;;7.00;;
34695;SDS011;20918;51.138;17.370;2022-10-16T15:30:03;9.80;;;7.25;;
34695;SDS011;20918;51.138;17.370;2022-10-16T15:33:08;7.78;;;6.97;;
34695;SDS011;20918;51.138;17.370;2022-10-16T15:36:14;9.43;;;7.35;;
34695;SDS011;20918;51.138;17.370;2022-10-16T15:39:16;11.05;;;7.53;;
34695;SDS011;20918;51.138;17.370;2022-10-16T15:42:20;8.33;;;7.30;;
34695;SDS011;20918;51.138;17.370;2022-10-16T15:45:26;14.15;;;7.95;;
34695;SDS011;20918;51.138;17.370;2022-10-16T15:48:28;12.95;;;9.50;;
34695;SDS011;20918;51.138;17.370;2022-10-16T15:51:33;15.38;;;8.20;;
34695;SDS011;20918;51.138;17.370;2022-10-16T15:54:34;13.88;;;9.63;;
34695;SDS011;20918;51.138;17.370;2022-10-16T15:57:36;22.48;;;12.00;;
34695;SDS011;20918;51.138;17.370;2022-10-16T16:00:40;40.38;;;18.80;;
34695;SDS011;20918;51.138;17.370;2022-10-16T16:03:42;25.12;;;14.03;;
34695;SDS011;20918;51.138;17.370;2022-10-16T16:06:43;28.32;;;12.18;;
34695;SDS011;20918;51.138;17.370;2022-10-16T16:09:46;14.13;;;11.25;;
34695;SDS011;20918;51.138;17.370;2022-10-16T16:12:49;14.70;;;12.55;;
34695;SDS011;20918;51.138;17.370;2022-10-16T16:15:52;11.63;;;9.60;;
34695;SDS011;20918;51.138;17.370;2022-10-16T16:18:54;11.83;;;9.98;;
34695;SDS011;20918;51.138;17.370;2022-10-16T16:21:56;13.95;;;9.78;;
34695;SDS011;20918;51.138;17.370;2022-10-16T16:24:57;14.38;;;10.93;;
34695;SDS011;20918;51.138;17.370;2022-10-16T16:28:02;14.85;;;10.98;;
34695;SDS011;20918;51.138;17.370;2022-10-16T16:31:07;17.10;;;12.55;;
34695;SDS011;20918;51.138;17.370;2022-10-16T16:34:09;22.67;;;18.30;;
34695;SDS011;20918;51.138;17.370;2022-10-16T16:37:11;16.52;;;11.73;;
34695;SDS011;20918;51.138;17.370;2022-10-16T16:40:12;15.25;;;11.78;;
34695;SDS011;20918;51.138;17.370;2022-10-16T16:43:13;15.78;;;11.43;;
34695;SDS011;20918;51.138;17.370;2022-10-16T16:46:15;16.93;;;13.38;;
34695;SDS011;20918;51.138;17.370;2022-10-16T16:49:20;14.87;;;11.08;;
34695;SDS011;20918;51.138;17.370;2022-10-16T16:52:25;14.55;;;11.33;;
34695;SDS011;20918;51.138;17.370;2022-10-16T16:55:29;17.67;;;11.20;;
34695;SDS011;20918;51.138;17.370;2022-10-16T16:58:32;17.92;;;11.93;;
34695;SDS011;20918;51.138;17.370;2022-10-16T17:01:33;19.45;;;13.35;;
34695;SDS011;20918;51.138;17.370;2022-10-16T17:04:35;18.12;;;13.38;;
34695;SDS011;20918;51.138;17.370;2022-10-16T17:07:36;22.37;;;15.28;;
34695;SDS011;20918;51.138;17.370;2022-10-16T17:10:43;30.08;;;17.92;;
34695;SDS011;20918;51.138;17.370;2022-10-16T17:13:45;17.32;;;13.18;;
34695;SDS011;20918;51.138;17.370;2022-10-16T17:16:49;15.00;;;11.48;;
34695;SDS011;20918;51.138;17.370;2022-10-16T17:19:55;15.05;;;11.75;;
34695;SDS011;20918;51.138;17.370;2022-10-16T17:22:56;21.23;;;14.10;;
34695;SDS011;20918;51.138;17.370;2022-10-16T17:29:14;19.10;;;11.97;;
34695;SDS011;20918;51.138;17.370;2022-10-16T17:32:17;15.43;;;12.75;;
34695;SDS011;20918;51.138;17.370;2022-10-16T17:35:20;14.40;;;11.80;;
34695;SDS011;20918;51.138;17.370;2022-10-16T17:38:27;15.18;;;11.75;;
34695;SDS011;20918;51.138;17.370;2022-10-16T17:41:26;16.27;;;11.50;;
34695;SDS011;20918;51.138;17.370;2022-10-16T17:44:27;18.77;;;12.15;;
34695;SDS011;20918;51.138;17.370;2022-10-16T17:47:28;26.77;;;17.27;;
34695;SDS011;20918;51.138;17.370;2022-10-16T17:50:30;35.55;;;22.10;;
34695;SDS011;20918;51.138;17.370;2022-10-16T17:53:34;19.60;;;13.90;;
34695;SDS011;20918;51.138;17.370;2022-10-16T17:56:36;13.78;;;12.13;;
34695;SDS011;20918;51.138;17.370;2022-10-16T17:59:38;15.70;;;12.10;;
34695;SDS011;20918;51.138;17.370;2022-10-16T18:02:39;14.15;;;12.23;;
34695;SDS011;20918;51.138;17.370;2022-10-16T18:05:41;14.58;;;12.13;;
34695;SDS011;20918;51.138;17.370;2022-10-16T18:08:43;15.32;;;12.20;;
34695;SDS011;20918;51.138;17.370;2022-10-16T18:11:45;21.50;;;16.05;;
34695;SDS011;20918;51.138;17.370;2022-10-16T18:14:46;18.17;;;13.20;;
34695;SDS011;20918;51.138;17.370;2022-10-16T18:17:48;16.73;;;12.82;;
34695;SDS011;20918;51.138;17.370;2022-10-16T18:20:56;16.50;;;12.50;;
34695;SDS011;20918;51.138;17.370;2022-10-16T18:23:59;17.12;;;13.13;;
34695;SDS011;20918;51.138;17.370;2022-10-16T18:27:00;15.63;;;13.30;;
34695;SDS011;20918;51.138;17.370;2022-10-16T18:30:01;18.20;;;13.65;;
34695;SDS011;20918;51.138;17.370;2022-10-16T18:33:04;20.55;;;14.30;;
34695;SDS011;20918;51.138;17.370;2022-10-16T18:36:06;21.35;;;15.75;;
34695;SDS011;20918;51.138;17.370;2022-10-16T18:39:09;31.90;;;20.43;;
34695;SDS011;20918;51.138;17.370;2022-10-16T18:42:12;34.50;;;20.77;;
34695;SDS011;20918;51.138;17.370;2022-10-16T18:45:18;27.15;;;18.62;;
34695;SDS011;20918;51.138;17.370;2022-10-16T18:48:20;24.85;;;17.10;;
34695;SDS011;20918;51.138;17.370;2022-10-16T18:51:31;23.07;;;17.15;;
34695;SDS011;20918;51.138;17.370;2022-10-16T18:54:39;24.32;;;16.55;;
34695;SDS011;20918;51.138;17.370;2022-10-16T18:57:41;20.37;;;15.55;;
34695;SDS011;20918;51.138;17.370;2022-10-16T19:00:42;23.60;;;15.45;;
34695;SDS011;20918;51.138;17.370;2022-10-16T19:03:46;22.32;;;15.98;;
34695;SDS011;20918;51.138;17.370;2022-10-16T19:06:49;17.77;;;14.73;;
34695;SDS011;20918;51.138;17.370;2022-10-16T19:09:53;18.60;;;15.80;;
34695;SDS011;20918;51.138;17.370;2022-10-16T19:12:54;21.77;;;16.97;;
34695;SDS011;20918;51.138;17.370;2022-10-16T19:15:56;21.52;;;16.50;;
34695;SDS011;20918;51.138;17.370;2022-10-16T19:19:01;20.55;;;17.10;;
34695;SDS011;20918;51.138;17.370;2022-10-16T19:22:04;23.52;;;17.77;;
34695;SDS011;20918;51.138;17.370;2022-10-16T19:25:14;23.10;;;17.92;;
34695;SDS011;20918;51.138;17.370;2022-10-16T19:28:15;25.08;;;19.75;;
34695;SDS011;20918;51.138;17.370;2022-10-16T19:31:18;26.00;;;18.35;;
34695;SDS011;20918;51.138;17.370;2022-10-16T19:34:21;24.15;;;17.00;;
34695;SDS011;20918;51.138;17.370;2022-10-16T19:37:23;22.32;;;17.62;;
34695;SDS011;20918;51.138;17.370;2022-10-16T19:40:26;25.45;;;18.32;;
34695;SDS011;20918;51.138;17.370;2022-10-16T19:43:28;26.02;;;20.23;;
34695;SDS011;20918;51.138;17.370;2022-10-16T19:46:29;28.92;;;21.00;;
34695;SDS011;20918;51.138;17.370;2022-10-16T19:49:31;23.95;;;19.10;;
34695;SDS011;20918;51.138;17.370;2022-10-16T19:52:33;23.12;;;18.80;;
34695;SDS011;20918;51.138;17.370;2022-10-16T19:55:34;20.52;;;17.27;;
34695;SDS011;20918;51.138;17.370;2022-10-16T19:58:35;26.35;;;18.95;;
34695;SDS011;20918;51.138;17.370;2022-10-16T20:01:36;27.48;;;19.32;;
34695;SDS011;20918;51.138;17.370;2022-10-16T20:04:37;23.32;;;17.87;;
34695;SDS011;20918;51.138;17.370;2022-10-16T20:07:39;26.25;;;18.90;;
34695;SDS011;20918;51.138;17.370;2022-10-16T20:10:46;37.93;;;25.77;;
34695;SDS011;20918;51.138;17.370;2022-10-16T20:13:51;31.57;;;24.65;;
34695;SDS011;20918;51.138;17.370;2022-10-16T20:16:52;28.60;;;21.50;;
34695;SDS011;20918;51.138;17.370;2022-10-16T20:19:56;27.48;;;21.65;;
34695;SDS011;20918;51.138;17.370;2022-10-16T20:22:57;24.30;;;18.62;;
34695;SDS011;20918;51.138;17.370;2022-10-16T20:25:59;25.30;;;18.92;;
34695;SDS011;20918;51.138;17.370;2022-10-16T20:29:03;29.50;;;20.27;;
34695;SDS011;20918;51.138;17.370;2022-10-16T20:32:05;31.57;;;21.93;;